createdAt,value
2023-04-25T00:01:05.385Z,11.19
2023-04-25T00:03:52.129Z,11.19
2023-04-25T00:06:41.055Z,11.13
2023-04-25T00:09:28.703Z,11.19
2023-04-25T00:12:16.077Z,11.19
2023-04-25T00:15:03.485Z,11.13
2023-04-25T00:17:53.482Z,11.13
2023-04-25T00:20:42.497Z,11.13
2023-04-25T00:23:29.412Z,11.06
2023-04-25T00:26:15.990Z,11.00
2023-04-25T00:29:03.388Z,11.00
2023-04-25T00:31:50.216Z,11.00
2023-04-25T00:34:36.872Z,11.00
2023-04-25T00:37:23.797Z,11.00
2023-04-25T00:40:10.952Z,10.94
2023-04-25T00:42:57.845Z,10.94
2023-04-25T00:45:47.819Z,10.94
2023-04-25T00:48:34.600Z,10.94
2023-04-25T00:51:22.541Z,11.00
2023-04-25T00:54:12.921Z,10.94
2023-04-25T00:57:01.361Z,11.00
2023-04-25T00:59:48.537Z,10.94
2023-04-25T01:02:36.386Z,10.94
2023-04-25T01:05:23.468Z,10.94
2023-04-25T01:08:10.925Z,10.94
2023-04-25T01:10:57.680Z,10.94
2023-04-25T01:13:44.783Z,10.88
2023-04-25T01:16:33.669Z,10.81
2023-04-25T01:19:20.651Z,10.75
2023-04-25T01:22:07.493Z,10.75
2023-04-25T01:24:54.135Z,10.69
2023-04-25T01:27:41.304Z,10.75
2023-04-25T01:30:30.249Z,10.69
2023-04-25T01:33:17.648Z,10.69
2023-04-25T01:36:05.443Z,10.75
2023-04-25T01:38:52.785Z,10.75
2023-04-25T01:41:39.400Z,10.75
2023-04-25T01:44:26.742Z,10.75
2023-04-25T01:47:13.948Z,10.75
2023-04-25T01:50:00.632Z,10.75
2023-04-25T01:52:50.035Z,10.75
2023-04-25T01:55:36.848Z,10.81
2023-04-25T01:58:29.853Z,10.81
2023-04-25T02:01:32.994Z,10.81
2023-04-25T02:04:32.182Z,10.81
2023-04-25T02:07:19.487Z,10.81
2023-04-25T02:10:13.733Z,10.75
2023-04-25T02:13:15.629Z,10.75
2023-04-25T02:16:17.800Z,10.75
2023-04-25T02:19:05.585Z,10.69
2023-04-25T02:21:52.696Z,10.75
2023-04-25T02:24:40.679Z,10.69
2023-04-25T02:27:27.392Z,10.69
2023-04-25T02:30:14.296Z,10.69
2023-04-25T02:33:01.330Z,10.75
2023-04-25T02:35:50.098Z,10.75
2023-04-25T02:38:36.971Z,10.75
2023-04-25T02:41:24.100Z,10.75
2023-04-25T02:44:10.788Z,10.69
2023-04-25T02:46:58.437Z,10.69
2023-04-25T02:49:46.014Z,10.69
2023-04-25T02:52:32.614Z,10.69
2023-04-25T02:55:28.307Z,10.63
2023-04-25T02:58:16.032Z,10.63
2023-04-25T03:01:10.136Z,10.63
2023-04-25T03:03:57.242Z,10.63
2023-04-25T03:06:44.749Z,10.63
2023-04-25T03:09:33.528Z,10.69
2023-04-25T03:12:20.229Z,10.69
2023-04-25T03:15:07.721Z,10.75
2023-04-25T03:17:54.968Z,10.69
2023-04-25T03:20:43.422Z,10.44
2023-04-25T03:23:30.844Z,10.19
2023-04-25T03:26:18.669Z,10.06
2023-04-25T03:29:05.872Z,9.88
2023-04-25T03:31:54.309Z,9.75
2023-04-25T03:34:41.864Z,9.56
2023-04-25T03:37:29.600Z,9.50
2023-04-25T03:40:16.424Z,9.38
2023-04-25T03:43:31.817Z,9.19
2023-04-25T03:46:22.019Z,9.06
2023-04-25T03:49:08.591Z,9.00
2023-04-25T03:52:11.831Z,8.94
2023-04-25T03:54:59.463Z,8.88
2023-04-25T03:57:46.340Z,8.75
2023-04-25T04:00:33.130Z,8.75
2023-04-25T04:03:22.172Z,8.81
2023-04-25T04:06:10.693Z,8.81
2023-04-25T04:09:00.563Z,8.75
2023-04-25T04:11:48.689Z,8.75
2023-04-25T04:14:35.909Z,8.75
2023-04-25T04:17:22.680Z,8.75
2023-04-25T04:20:10.349Z,8.75
2023-04-25T04:22:58.722Z,8.63
2023-04-25T04:25:47.340Z,8.69
2023-04-25T04:28:56.792Z,8.69
2023-04-25T04:32:01.629Z,8.75
2023-04-25T04:34:49.547Z,8.75
2023-04-25T04:37:37.359Z,8.75
2023-04-25T04:40:25.929Z,8.81
2023-04-25T04:43:24.893Z,8.75
2023-04-25T04:46:22.356Z,8.88
2023-04-25T04:49:31.763Z,8.94
2023-04-25T04:52:48.886Z,9.00
2023-04-25T04:55:58.292Z,9.06
2023-04-25T04:59:13.809Z,9.19
2023-04-25T05:02:07.745Z,9.19
2023-04-25T05:05:09.566Z,9.25
2023-04-25T05:08:09.910Z,9.38
2023-04-25T05:11:26.361Z,9.38
2023-04-25T05:14:24.495Z,9.31
2023-04-25T05:17:33.293Z,9.25
2023-04-25T05:20:37.740Z,9.19
2023-04-25T05:23:43.960Z,9.19
2023-04-25T05:26:50.669Z,9.31
2023-04-25T05:29:55.404Z,9.50
2023-04-25T05:32:48.883Z,9.63
2023-04-25T05:35:35.429Z,10.06
2023-04-25T05:38:22.126Z,10.44
2023-04-25T05:41:32.071Z,10.38
2023-04-25T05:44:22.305Z,10.13
2023-04-25T05:47:29.218Z,10.19
2023-04-25T05:50:33.531Z,10.00
2023-04-25T05:53:24.176Z,9.88
2023-04-25T05:56:19.519Z,9.75
2023-04-25T05:59:08.124Z,9.69
2023-04-25T06:01:56.321Z,9.50
2023-04-25T06:04:43.163Z,9.56
2023-04-25T06:07:31.838Z,9.50
2023-04-25T06:10:18.841Z,9.31
2023-04-25T06:13:06.154Z,9.38
2023-04-25T06:15:54.038Z,9.31
2023-04-25T06:18:40.568Z,9.19
2023-04-25T06:21:27.844Z,9.25
2023-04-25T06:24:14.558Z,9.13
2023-04-25T06:27:01.601Z,8.94
2023-04-25T06:29:50.148Z,8.94
2023-04-25T06:32:37.364Z,8.88
2023-04-25T06:35:24.182Z,8.94
2023-04-25T06:38:10.845Z,8.94
2023-04-25T06:40:58.236Z,9.06
2023-04-25T06:43:45.588Z,9.25
2023-04-25T06:46:48.714Z,9.38
2023-04-25T06:49:35.646Z,9.38
2023-04-25T06:52:22.817Z,9.38
2023-04-25T06:55:10.088Z,9.44
2023-04-25T06:58:12.616Z,9.44
2023-04-25T07:01:11.410Z,9.44
2023-04-25T07:03:58.413Z,9.44
2023-04-25T07:06:47.755Z,9.38
2023-04-25T07:09:36.561Z,9.25
2023-04-25T07:12:23.423Z,9.13
2023-04-25T07:15:12.022Z,9.31
2023-04-25T07:18:00.452Z,9.38
2023-04-25T07:20:47.420Z,9.44
2023-04-25T07:23:34.250Z,9.31
2023-04-25T07:26:23.306Z,9.31
2023-04-25T07:29:30.756Z,9.38
2023-04-25T07:32:19.245Z,9.38
2023-04-25T07:35:08.237Z,9.50
2023-04-25T07:37:55.584Z,9.94
2023-04-25T07:40:43.578Z,10.50
2023-04-25T07:43:33.908Z,11.75
2023-04-25T07:46:20.478Z,12.81
2023-04-25T07:49:08.575Z,13.75
2023-04-25T07:51:55.484Z,14.56
2023-04-25T07:54:43.492Z,14.56
2023-04-25T07:57:35.431Z,14.31
2023-04-25T08:00:23.393Z,14.56
2023-04-25T08:03:11.141Z,14.69
2023-04-25T08:05:58.263Z,14.38
2023-04-25T08:08:46.069Z,14.44
2023-04-25T08:11:33.907Z,14.06
2023-04-25T08:14:20.897Z,14.00
2023-04-25T08:17:08.507Z,13.38
2023-04-25T08:19:59.970Z,13.25
2023-04-25T08:22:49.260Z,13.06
2023-04-25T08:25:55.889Z,13.13
2023-04-25T08:28:44.766Z,12.75
2023-04-25T08:31:32.484Z,12.38
2023-04-25T08:34:21.102Z,12.13
2023-04-25T08:37:10.353Z,12.13
2023-04-25T08:40:07.521Z,12.31
2023-04-25T08:43:11.691Z,12.19
2023-04-25T08:46:02.086Z,12.56
2023-04-25T08:49:02.789Z,12.69
2023-04-25T08:51:52.135Z,12.50
2023-04-25T08:54:48.944Z,12.56
2023-04-25T08:57:36.337Z,12.69
2023-04-25T09:00:23.336Z,12.75
2023-04-25T09:03:11.283Z,12.75
2023-04-25T09:05:58.478Z,12.56
2023-04-25T09:08:44.889Z,12.25
2023-04-25T09:11:33.011Z,11.94
2023-04-25T09:14:23.485Z,11.88
2023-04-25T09:17:20.458Z,11.94
2023-04-25T09:20:14.262Z,12.44
2023-04-25T09:23:07.015Z,13.06
2023-04-25T09:25:55.376Z,13.56
2023-04-25T09:28:43.491Z,14.25
2023-04-25T09:31:30.161Z,14.88
2023-04-25T09:34:21.484Z,15.56
2023-04-25T09:37:21.846Z,15.56
2023-04-25T09:40:26.988Z,15.38
2023-04-25T09:43:25.392Z,14.88
2023-04-25T09:46:12.235Z,13.75
2023-04-25T09:49:08.555Z,13.06
2023-04-25T09:52:04.641Z,12.88
2023-04-25T09:54:57.578Z,12.81
2023-04-25T09:57:55.081Z,12.69
2023-04-25T10:00:41.716Z,12.88
2023-04-25T10:03:36.282Z,13.13
2023-04-25T10:06:56.339Z,13.88
2023-04-25T10:09:46.101Z,14.50
2023-04-25T10:12:34.586Z,14.25
2023-04-25T10:15:22.875Z,13.19
2023-04-25T10:18:10.066Z,12.63
2023-04-25T10:21:02.270Z,12.38
2023-04-25T10:23:50.168Z,12.25
2023-04-25T10:26:36.672Z,12.00
2023-04-25T10:29:25.461Z,12.06
2023-04-25T10:32:12.412Z,12.00
2023-04-25T10:35:24.818Z,12.00
2023-04-25T10:38:14.774Z,12.25
2023-04-25T10:41:08.673Z,12.44
2023-04-25T10:44:03.836Z,12.56
2023-04-25T10:46:50.735Z,12.88
2023-04-25T10:49:43.163Z,13.31
2023-04-25T10:52:30.212Z,13.69
2023-04-25T10:55:16.800Z,13.94
2023-04-25T10:58:04.057Z,14.13
2023-04-25T11:03:44.664Z,13.94
2023-04-25T11:06:58.142Z,13.81
2023-04-25T11:09:50.671Z,13.63
2023-04-25T11:12:37.293Z,13.63
2023-04-25T11:15:25.484Z,13.81
2023-04-25T11:18:17.512Z,13.94
2023-04-25T11:21:04.378Z,13.63
2023-04-25T11:23:50.745Z,13.25
2023-04-25T11:26:38.015Z,12.81
2023-04-25T11:29:28.519Z,12.69
2023-04-25T11:32:19.793Z,12.81
2023-04-25T11:35:08.952Z,12.63
2023-04-25T11:37:56.892Z,12.44
2023-04-25T11:40:43.268Z,12.38
2023-04-25T11:43:29.436Z,12.13
2023-04-25T11:46:16.387Z,11.94
2023-04-25T11:49:05.699Z,11.75
2023-04-25T11:51:52.660Z,11.56
2023-04-25T11:54:39.045Z,11.44
2023-04-25T11:57:25.745Z,11.38
2023-04-25T12:00:18.692Z,11.19
2023-04-25T12:03:09.999Z,11.06
2023-04-25T12:06:04.423Z,11.06
2023-04-25T12:09:01.204Z,11.00
2023-04-25T12:11:49.703Z,11.06
2023-04-25T12:14:37.262Z,11.25
2023-04-25T12:17:23.840Z,11.38
2023-04-25T12:20:14.053Z,11.31
2023-04-25T12:23:00.774Z,11.38
2023-04-25T12:25:47.802Z,11.69
2023-04-25T12:28:34.789Z,11.81
2023-04-25T12:31:21.743Z,11.88
2023-04-25T12:34:08.652Z,12.13
2023-04-25T12:36:55.197Z,12.38
2023-04-25T12:39:41.862Z,12.44
2023-04-25T12:42:28.439Z,12.63
2023-04-25T12:45:16.269Z,12.75
2023-04-25T12:48:04.137Z,12.81
2023-04-25T12:50:52.385Z,12.81
2023-04-25T12:53:41.148Z,12.94
2023-04-25T12:56:28.265Z,12.81
2023-04-25T12:59:15.030Z,12.38
2023-04-25T13:02:02.227Z,12.44
2023-04-25T13:04:49.042Z,12.44
2023-04-25T13:07:36.099Z,12.81
2023-04-25T13:10:23.195Z,13.25
2023-04-25T13:13:10.055Z,13.50
2023-04-25T13:15:58.570Z,13.94
2023-04-25T13:18:45.499Z,14.19
2023-04-25T13:21:32.927Z,14.50
2023-04-25T13:24:19.313Z,14.63
2023-04-25T13:27:05.677Z,14.63
2023-04-25T13:29:53.075Z,14.75
2023-04-25T13:32:40.453Z,15.25
2023-04-25T13:35:27.010Z,15.81
2023-04-25T13:38:14.527Z,16.06
2023-04-25T13:41:01.470Z,16.00
2023-04-25T13:43:48.022Z,15.69
2023-04-25T13:46:46.478Z,14.81
2023-04-25T13:49:35.233Z,14.50
2023-04-25T13:52:21.873Z,14.00
2023-04-25T13:55:09.976Z,13.75
2023-04-25T13:57:56.829Z,13.19
2023-04-25T14:00:45.847Z,12.31
2023-04-25T14:03:32.673Z,11.63
2023-04-25T14:06:23.263Z,11.13
2023-04-25T14:09:10.836Z,10.75
2023-04-25T14:11:57.614Z,10.56
2023-04-25T14:14:44.343Z,10.38
2023-04-25T14:17:32.890Z,10.06
2023-04-25T14:20:21.687Z,9.75
2023-04-25T14:23:08.647Z,9.69
2023-04-25T14:25:55.433Z,9.69
2023-04-25T14:28:41.831Z,9.69
2023-04-25T14:31:29.664Z,9.69
2023-04-25T14:34:16.514Z,9.75
2023-04-25T14:37:05.122Z,9.56
2023-04-25T14:39:52.212Z,9.56
2023-04-25T14:42:40.699Z,9.69
2023-04-25T14:45:29.166Z,9.88
2023-04-25T14:48:18.545Z,10.06
2023-04-25T14:51:07.447Z,10.38
2023-04-25T14:53:56.815Z,10.06
2023-04-25T14:56:43.314Z,9.94
2023-04-25T14:59:30.896Z,9.81
2023-04-25T15:02:18.369Z,9.88
2023-04-25T15:05:06.241Z,9.88
2023-04-25T15:07:53.992Z,9.81
2023-04-25T15:10:40.302Z,9.69
2023-04-25T15:13:29.153Z,9.75
2023-04-25T15:16:16.051Z,9.81
2023-04-25T15:19:06.212Z,9.56
2023-04-25T15:21:52.804Z,9.44
2023-04-25T15:24:39.733Z,9.50
2023-04-25T15:27:28.917Z,9.31
2023-04-25T15:30:20.405Z,9.38
2023-04-25T15:33:06.930Z,9.31
2023-04-25T15:35:53.700Z,9.25
2023-04-25T15:38:41.892Z,9.25
2023-04-25T15:41:29.255Z,9.25
2023-04-25T15:44:18.416Z,9.31
2023-04-25T15:47:05.472Z,9.44
2023-04-25T15:49:52.295Z,9.44
2023-04-25T15:52:39.189Z,9.25
2023-04-25T15:55:26.383Z,9.13
2023-04-25T15:58:13.314Z,9.06
2023-04-25T16:01:00.070Z,9.06
2023-04-25T16:03:48.019Z,9.00
2023-04-25T16:06:34.738Z,8.94
2023-04-25T16:09:21.652Z,8.81
2023-04-25T16:12:11.383Z,8.69
2023-04-25T16:14:59.085Z,8.63
2023-04-25T16:17:45.921Z,8.50
2023-04-25T16:20:34.011Z,8.44
2023-04-25T16:23:21.036Z,8.38
2023-04-25T16:26:08.665Z,8.44
2023-04-25T16:28:55.710Z,8.44
2023-04-25T16:31:42.865Z,8.44
2023-04-25T16:34:30.072Z,8.50
2023-04-25T16:37:16.552Z,8.50
2023-04-25T16:40:03.867Z,8.44
2023-04-25T16:42:50.708Z,8.44
2023-04-25T16:45:37.566Z,8.44
2023-04-25T16:48:24.074Z,8.50
2023-04-25T16:51:10.813Z,8.44
2023-04-25T16:54:02.402Z,8.44
2023-04-25T16:56:49.252Z,8.38
2023-04-25T16:59:35.661Z,8.31
2023-04-25T17:02:22.883Z,8.31
2023-04-25T17:05:10.234Z,8.25
2023-04-25T17:07:58.502Z,8.31
2023-04-25T17:10:45.423Z,8.25
2023-04-25T17:13:33.160Z,8.25
2023-04-25T17:16:22.718Z,8.19
2023-04-25T17:19:09.362Z,8.00
2023-04-25T17:21:55.833Z,8.00
2023-04-25T17:24:43.182Z,8.06
2023-04-25T17:27:29.876Z,8.06
2023-04-25T17:30:16.913Z,8.06
2023-04-25T17:33:04.040Z,8.06
2023-04-25T17:35:51.196Z,8.06
2023-04-25T17:38:40.914Z,8.00
2023-04-25T17:41:28.767Z,7.94
2023-04-25T17:44:16.316Z,7.94
2023-04-25T17:47:06.601Z,8.00
2023-04-25T17:49:57.063Z,7.94
2023-04-25T17:52:44.896Z,7.81
2023-04-25T17:55:33.995Z,7.69
2023-04-25T17:58:21.562Z,7.69
2023-04-25T18:01:09.725Z,7.69
2023-04-25T18:03:56.734Z,7.69
2023-04-25T18:06:43.608Z,7.63
2023-04-25T18:09:33.722Z,7.56
2023-04-25T18:12:20.588Z,7.44
2023-04-25T18:15:08.727Z,7.31
2023-04-25T18:17:57.336Z,7.25
2023-04-25T18:20:45.375Z,7.19
2023-04-25T18:23:33.387Z,7.00
2023-04-25T18:26:20.630Z,6.81
2023-04-25T18:29:12.088Z,6.69
2023-04-25T18:32:01.740Z,6.56
2023-04-25T18:34:49.749Z,6.44
2023-04-25T18:37:36.803Z,6.31
2023-04-25T18:40:23.673Z,6.25
2023-04-25T18:43:11.104Z,6.13
2023-04-25T18:45:58.235Z,6.06
2023-04-25T18:48:46.652Z,6.00
2023-04-25T18:51:33.139Z,6.00
2023-04-25T18:54:20.177Z,6.00
2023-04-25T18:57:06.999Z,5.94
2023-04-25T18:59:53.769Z,5.94
2023-04-25T19:02:41.106Z,5.88
2023-04-25T19:05:33.955Z,5.88
2023-04-25T19:08:21.140Z,5.81
2023-04-25T19:11:20.420Z,5.81
2023-04-25T19:14:08.486Z,5.81
2023-04-25T19:16:58.510Z,5.81
2023-04-25T19:19:50.089Z,5.75
2023-04-25T19:22:37.019Z,5.75
2023-04-25T19:25:25.247Z,5.69
2023-04-25T19:28:13.507Z,5.63
2023-04-25T19:31:00.871Z,5.56
2023-04-25T19:33:47.272Z,5.56
2023-04-25T19:36:38.424Z,5.50
2023-04-25T19:39:25.063Z,5.50
2023-04-25T19:42:13.546Z,5.50
2023-04-25T19:45:00.112Z,5.44
2023-04-25T19:47:47.608Z,5.38
2023-04-25T19:50:34.446Z,5.38
2023-04-25T19:53:20.888Z,5.31
2023-04-25T19:56:09.078Z,5.31
2023-04-25T19:58:58.973Z,5.31
2023-04-25T20:01:49.303Z,5.38
2023-04-25T20:04:38.043Z,5.31
2023-04-25T20:07:24.848Z,5.31
2023-04-25T20:10:15.803Z,5.31
2023-04-25T20:13:02.428Z,5.31
2023-04-25T20:15:49.781Z,5.38
2023-04-25T20:18:36.714Z,5.38
2023-04-25T20:21:23.503Z,5.38
2023-04-25T20:24:11.319Z,5.38
2023-04-25T20:26:58.337Z,5.38
2023-04-25T20:29:45.150Z,5.31
2023-04-25T20:32:34.051Z,5.38
2023-04-25T20:35:22.376Z,5.38
2023-04-25T20:38:09.783Z,5.38
2023-04-25T20:40:57.933Z,5.38
2023-04-25T20:43:46.696Z,5.38
2023-04-25T20:46:35.755Z,5.44
2023-04-25T20:49:22.808Z,5.44
2023-04-25T20:52:09.779Z,5.38
2023-04-25T20:54:56.399Z,5.38
2023-04-25T20:57:42.872Z,5.38
2023-04-25T21:00:33.745Z,5.38
2023-04-25T21:03:20.301Z,5.38
2023-04-25T21:06:08.236Z,5.38
2023-04-25T21:08:54.964Z,5.38
2023-04-25T21:11:42.114Z,5.38
2023-04-25T21:14:28.619Z,5.38
2023-04-25T21:17:17.282Z,5.38
2023-04-25T21:20:09.696Z,5.38
2023-04-25T21:22:56.458Z,5.31
2023-04-25T21:25:42.986Z,5.31
2023-04-25T21:28:29.245Z,5.31
2023-04-25T21:31:15.744Z,5.31
2023-04-25T21:34:02.642Z,5.31
2023-04-25T21:36:50.411Z,5.31
2023-04-25T21:39:37.026Z,5.31
2023-04-25T21:42:23.609Z,5.31
2023-04-25T21:45:12.485Z,5.31
2023-04-25T21:47:59.102Z,5.31
2023-04-25T21:50:47.102Z,5.31
2023-04-25T21:53:33.457Z,5.31
2023-04-25T21:56:21.053Z,5.31
2023-04-25T21:59:07.659Z,5.38
2023-04-25T22:01:54.614Z,5.44
2023-04-25T22:04:47.422Z,5.44
2023-04-25T22:07:33.931Z,5.38
2023-04-25T22:10:21.545Z,5.31
2023-04-25T22:13:07.985Z,5.25
2023-04-25T22:15:54.346Z,5.25
2023-04-25T22:18:41.588Z,5.19
2023-04-25T22:21:28.090Z,5.19
2023-04-25T22:24:15.141Z,5.13
2023-04-25T22:27:02.472Z,5.13
2023-04-25T22:29:49.335Z,5.13
2023-04-25T22:32:36.518Z,5.13
2023-04-25T22:35:23.227Z,5.06
2023-04-25T22:38:11.467Z,5.06
2023-04-25T22:40:57.918Z,5.06
2023-04-25T22:43:44.246Z,5.00
2023-04-25T22:46:31.084Z,5.06
2023-04-25T22:49:17.592Z,5.00
2023-04-25T22:52:06.861Z,5.00
2023-04-25T22:54:53.609Z,5.00
2023-04-25T22:57:40.811Z,4.94
2023-04-25T23:00:29.708Z,4.94
2023-04-25T23:03:16.265Z,4.94
2023-04-25T23:06:03.323Z,4.94
2023-04-25T23:08:50.494Z,4.94
2023-04-25T23:11:38.598Z,4.94
2023-04-25T23:14:25.503Z,4.94
2023-04-25T23:17:12.059Z,4.88
2023-04-25T23:19:58.820Z,4.88
2023-04-25T23:22:44.788Z,4.81
2023-04-25T23:25:32.173Z,4.75
2023-04-25T23:28:19.720Z,4.75
2023-04-25T23:31:07.669Z,4.69
2023-04-25T23:33:54.253Z,4.69
2023-04-25T23:36:41.206Z,4.69
2023-04-25T23:39:28.142Z,4.63
2023-04-25T23:42:14.726Z,4.63
2023-04-25T23:45:01.231Z,4.56
2023-04-25T23:47:48.193Z,4.50
2023-04-25T23:50:35.573Z,4.44
2023-04-25T23:53:23.972Z,4.44
2023-04-25T23:56:14.460Z,4.44
2023-04-25T23:59:06.135Z,4.44
